Time;durP1;ratioP1;P1;durP2;ratioP2;P2;SDS_P1;SDS_P2;PMS_P1;PMS_P2;Temp;Humidity;BMP_temperature;BMP_pressure;BME280_temperature;BME280_humidity;BME280_pressure;Samples;Min_cycle;Max_cycle;Signal;HPM_P1;HPM_P2
2022/12/07 00:00:49;;;;;;;10.63;2.00;;;;;;;;;;5071450;28;20044;-76
2022/12/07 00:03:15;;;;;;;6.50;1.70;;;;;;;;;;5070980;28;20094;-76
2022/12/07 00:05:41;;;;;;;11.07;2.63;;;;;;;;;;5070976;28;20043;-77
2022/12/07 00:08:07;;;;;;;11.50;2.00;;;;;;;;;;5071371;28;20071;-76
2022/12/07 00:10:34;;;;;;;8.18;1.92;;;;;;;;;;5057280;28;20094;-76
2022/12/07 00:13:00;;;;;;;11.32;1.95;;;;;;;;;;5070703;28;20106;-76
2022/12/07 00:15:26;;;;;;;13.75;2.10;;;;;;;;;;5068810;28;20558;-76
2022/12/07 00:17:52;;;;;;;9.82;2.00;;;;;;;;;;5059814;28;20487;-76
2022/12/07 00:20:18;;;;;;;14.10;1.98;;;;;;;;;;5057905;28;20044;-77
2022/12/07 00:22:44;;;;;;;8.93;1.85;;;;;;;;;;5059238;28;20029;-76
2022/12/07 00:25:10;;;;;;;8.60;1.90;;;;;;;;;;5063765;28;20107;-76
2022/12/07 00:27:36;;;;;;;10.27;1.77;;;;;;;;;;5066121;28;20047;-76
2022/12/07 00:30:03;;;;;;;10.65;1.60;;;;;;;;;;5071060;28;20048;-76
2022/12/07 00:32:29;;;;;;;8.68;1.65;;;;;;;;;;5071042;28;20044;-76
2022/12/07 00:34:55;;;;;;;8.88;1.50;;;;;;;;;;5059155;28;20049;-76
2022/12/07 00:37:21;;;;;;;10.38;1.80;;;;;;;;;;5071009;28;20045;-76
2022/12/07 00:39:47;;;;;;;7.93;1.45;;;;;;;;;;5070566;28;20040;-76
2022/12/07 00:42:13;;;;;;;6.65;1.27;;;;;;;;;;5072350;28;20032;-76
2022/12/07 00:44:39;;;;;;;11.02;1.98;;;;;;;;;;5072285;28;20132;-76
2022/12/07 00:47:05;;;;;;;8.38;1.45;;;;;;;;;;5070939;28;20061;-75
2022/12/07 00:49:31;;;;;;;8.68;1.55;;;;;;;;;;5072391;28;20044;-75
2022/12/07 00:51:57;;;;;;;8.18;1.63;;;;;;;;;;5071858;28;20036;-76
2022/12/07 00:54:23;;;;;;;9.13;1.63;;;;;;;;;;5071024;28;20378;-76
2022/12/07 00:56:49;;;;;;;8.45;1.73;;;;;;;;;;5070777;28;20064;-76
2022/12/07 00:59:15;;;;;;;13.38;2.05;;;;;;;;;;5071251;28;20473;-76
2022/12/07 01:01:41;;;;;;;13.80;1.83;;;;;;;;;;5054265;28;20053;-76
2022/12/07 01:04:08;;;;;;;7.88;1.60;;;;;;;;;;5063143;28;20064;-76
2022/12/07 01:06:34;;;;;;;12.45;1.60;;;;;;;;;;5047736;28;20072;-77
2022/12/07 01:09:00;;;;;;;9.88;1.70;;;;;;;;;;5070153;28;20044;-76
2022/12/07 01:11:28;;;;;;;10.38;1.60;;;;;;;;;;5070904;28;20501;-76
2022/12/07 01:13:55;;;;;;;13.30;1.40;;;;;;;;;;5069839;28;20128;-76
2022/12/07 01:16:22;;;;;;;13.88;2.00;;;;;;;;;;5070598;28;20032;-76
2022/12/07 01:18:49;;;;;;;8.55;1.60;;;;;;;;;;5070049;28;20049;-76
2022/12/07 01:21:16;;;;;;;11.45;1.80;;;;;;;;;;5072037;28;20044;-76
2022/12/07 01:23:43;;;;;;;10.23;1.85;;;;;;;;;;5070602;28;20040;-76
2022/12/07 01:26:13;;;;;;;15.27;1.92;;;;;;;;;;5057485;28;20037;-76
2022/12/07 01:28:39;;;;;;;8.65;1.48;;;;;;;;;;5061113;28;20049;-76
2022/12/07 01:31:11;;;;;;;8.23;1.60;;;;;;;;;;5066050;28;20447;-76
2022/12/07 01:33:38;;;;;;;6.70;1.48;;;;;;;;;;5048195;28;20045;-76
2022/12/07 01:36:24;;;;;;;11.38;1.80;;;;;;;;;;5048014;28;20072;-76
2022/12/07 01:38:52;;;;;;;5.60;1.40;;;;;;;;;;5060345;28;20041;-76
2022/12/07 01:41:19;;;;;;;13.10;1.45;;;;;;;;;;5067335;28;20033;-76
2022/12/07 01:44:03;;;;;;;11.48;1.40;;;;;;;;;;5071700;28;20053;-76
2022/12/07 01:46:29;;;;;;;11.90;1.40;;;;;;;;;;5069334;28;20090;-76
2022/12/07 01:48:55;;;;;;;11.77;2.17;;;;;;;;;;5049880;28;20036;-76
2022/12/07 01:51:21;;;;;;;11.32;1.52;;;;;;;;;;5065789;28;20063;-76
2022/12/07 01:53:47;;;;;;;7.07;1.20;;;;;;;;;;5073948;28;20097;-77
2022/12/07 01:56:17;;;;;;;15.90;2.05;;;;;;;;;;5044450;28;20052;-76
2022/12/07 01:58:44;;;;;;;6.20;1.35;;;;;;;;;;5072957;28;20037;-76
2022/12/07 02:01:10;;;;;;;5.63;1.10;;;;;;;;;;5063376;28;20041;-76
2022/12/07 02:03:40;;;;;;;10.63;1.70;;;;;;;;;;5058151;28;20059;-76
2022/12/07 02:06:07;;;;;;;8.88;1.63;;;;;;;;;;5063719;28;20049;-76
2022/12/07 02:08:33;;;;;;;9.82;1.10;;;;;;;;;;5053527;28;20044;-77
2022/12/07 02:11:01;;;;;;;10.57;1.48;;;;;;;;;;5061456;28;20056;-76
2022/12/07 02:13:29;;;;;;;10.18;1.02;;;;;;;;;;5073073;28;20049;-76
2022/12/07 02:16:04;;;;;;;10.15;1.00;;;;;;;;;;5059589;28;20044;-76
2022/12/07 02:18:39;;;;;;;6.13;1.00;;;;;;;;;;5059629;28;20048;-77
2022/12/07 02:21:11;;;;;;;9.93;1.13;;;;;;;;;;5047887;28;20519;-77
2022/12/07 02:23:46;;;;;;;14.85;1.40;;;;;;;;;;5059473;28;20114;-76
2022/12/07 02:26:31;;;;;;;11.45;1.17;;;;;;;;;;5069551;28;20041;-77
2022/12/07 02:29:03;;;;;;;12.75;1.10;;;;;;;;;;5064844;28;20040;-77
2022/12/07 02:31:31;;;;;;;9.20;1.00;;;;;;;;;;5058958;28;20062;-76
2022/12/07 02:34:16;;;;;;;6.28;0.85;;;;;;;;;;5064369;28;20052;-76
2022/12/07 02:36:47;;;;;;;8.23;1.00;;;;;;;;;;5068942;28;20033;-77
2022/12/07 02:39:36;;;;;;;7.10;1.67;;;;;;;;;;5066447;28;20039;-76
2022/12/07 02:42:06;;;;;;;8.30;1.13;;;;;;;;;;5067517;28;20179;-76
2022/12/07 02:44:33;;;;;;;7.18;0.90;;;;;;;;;;5072911;28;20134;-76
2022/12/07 02:47:04;;;;;;;10.15;1.17;;;;;;;;;;5072571;28;20036;-76
2022/12/07 02:49:30;;;;;;;10.82;0.98;;;;;;;;;;5056350;28;20094;-76
2022/12/07 02:51:56;;;;;;;9.52;0.80;;;;;;;;;;5073346;28;20477;-76
2022/12/07 02:54:23;;;;;;;6.75;1.38;;;;;;;;;;5072442;28;20048;-76
2022/12/07 02:57:07;;;;;;;8.52;1.45;;;;;;;;;;5061462;28;20033;-77
2022/12/07 02:59:33;;;;;;;12.07;1.00;;;;;;;;;;5072713;28;20397;-76
2022/12/07 03:01:59;;;;;;;12.45;1.10;;;;;;;;;;5058179;28;20045;-76
2022/12/07 03:04:34;;;;;;;8.48;1.00;;;;;;;;;;5060068;28;20048;-77
2022/12/07 03:07:11;;;;;;;6.07;0.90;;;;;;;;;;5085055;28;20124;-76
2022/12/07 03:09:52;;;;;;;10.63;1.00;;;;;;;;;;5065601;28;20056;-76
2022/12/07 03:12:22;;;;;;;9.18;0.90;;;;;;;;;;5072075;28;20044;-76
2022/12/07 03:14:55;;;;;;;7.63;1.77;;;;;;;;;;5058586;28;20041;-76
2022/12/07 03:17:32;;;;;;;10.98;1.23;;;;;;;;;;5038361;28;20041;-76
2022/12/07 03:19:59;;;;;;;13.27;1.63;;;;;;;;;;5052418;28;20041;-78
2022/12/07 03:22:26;;;;;;;10.80;1.20;;;;;;;;;;5044499;28;20049;-77
2022/12/07 03:24:54;;;;;;;10.00;1.33;;;;;;;;;;5072136;28;20097;-77
2022/12/07 03:27:22;;;;;;;9.43;1.05;;;;;;;;;;5053258;28;20033;-77
2022/12/07 03:30:02;;;;;;;8.63;0.82;;;;;;;;;;5063085;28;20044;-77
2022/12/07 03:32:35;;;;;;;7.47;0.95;;;;;;;;;;5067642;28;20041;-77
2022/12/07 03:35:17;;;;;;;9.63;1.00;;;;;;;;;;5052111;28;20551;-77
2022/12/07 03:37:43;;;;;;;6.07;0.90;;;;;;;;;;5057683;28;20119;-77
2022/12/07 03:40:15;;;;;;;6.72;1.23;;;;;;;;;;5055121;28;20044;-77
2022/12/07 03:42:41;;;;;;;9.60;0.88;;;;;;;;;;5072560;28;20044;-77
2022/12/07 03:45:08;;;;;;;9.35;1.15;;;;;;;;;;5071545;28;20037;-77
2022/12/07 03:47:38;;;;;;;6.93;1.48;;;;;;;;;;5105782;28;20098;-77
2022/12/07 03:50:16;;;;;;;6.78;0.70;;;;;;;;;;5071708;28;20052;-76
2022/12/07 03:52:54;;;;;;;10.95;1.05;;;;;;;;;;5057975;28;20040;-77
2022/12/07 03:55:27;;;;;;;7.03;1.00;;;;;;;;;;5071699;28;20484;-77
2022/12/07 03:57:55;;;;;;;8.57;0.90;;;;;;;;;;5057778;28;20047;-77
2022/12/07 04:00:21;;;;;;;10.43;1.20;;;;;;;;;;5071334;28;20515;-77
2022/12/07 04:02:47;;;;;;;4.68;0.98;;;;;;;;;;5069253;28;20056;-77
2022/12/07 04:05:13;;;;;;;6.47;0.90;;;;;;;;;;5058250;28;20394;-77
2022/12/07 04:07:41;;;;;;;7.80;1.08;;;;;;;;;;5059628;28;20080;-77
2022/12/07 04:10:07;;;;;;;10.60;1.25;;;;;;;;;;5052502;28;20112;-77
2022/12/07 04:12:33;;;;;;;7.90;1.05;;;;;;;;;;5062917;28;20482;-77
2022/12/07 04:14:59;;;;;;;10.88;1.10;;;;;;;;;;5072178;28;20447;-77
2022/12/07 04:17:25;;;;;;;9.48;1.05;;;;;;;;;;5071214;28;20040;-77
2022/12/07 04:19:51;;;;;;;10.38;1.05;;;;;;;;;;5057136;28;20124;-77
2022/12/07 04:22:17;;;;;;;6.22;1.00;;;;;;;;;;5070885;28;20037;-77
2022/12/07 04:24:43;;;;;;;9.45;1.05;;;;;;;;;;5071426;28;20072;-77
2022/12/07 04:27:09;;;;;;;11.48;1.00;;;;;;;;;;5071369;28;20037;-77
2022/12/07 04:29:35;;;;;;;5.60;0.88;;;;;;;;;;5059403;28;20045;-76
2022/12/07 04:32:01;;;;;;;9.88;1.13;;;;;;;;;;5056030;28;20040;-76
2022/12/07 04:34:28;;;;;;;10.52;0.98;;;;;;;;;;5067765;28;20078;-76
2022/12/07 04:36:54;;;;;;;7.03;1.00;;;;;;;;;;5058222;28;20482;-76
2022/12/07 04:39:27;;;;;;;6.60;1.00;;;;;;;;;;5070689;28;20033;-76
2022/12/07 04:41:53;;;;;;;6.05;0.80;;;;;;;;;;5070787;28;20089;-76
2022/12/07 04:44:20;;;;;;;5.82;1.08;;;;;;;;;;5070724;28;20052;-76
2022/12/07 04:46:47;;;;;;;9.65;1.00;;;;;;;;;;5070961;28;20139;-76
2022/12/07 04:49:13;;;;;;;9.55;1.00;;;;;;;;;;5070699;28;20036;-76
2022/12/07 04:51:40;;;;;;;13.20;1.02;;;;;;;;;;5072242;28;20072;-76
2022/12/07 04:54:06;;;;;;;9.85;1.08;;;;;;;;;;5070888;28;20444;-76
2022/12/07 04:56:32;;;;;;;8.50;1.00;;;;;;;;;;5072083;28;20110;-76
2022/12/07 04:58:58;;;;;;;12.48;1.58;;;;;;;;;;5038980;28;20091;-76
2022/12/07 05:01:25;;;;;;;8.93;1.10;;;;;;;;;;5047846;28;20041;-76
2022/12/07 05:03:51;;;;;;;11.10;1.30;;;;;;;;;;5033965;28;20116;-76
2022/12/07 05:06:17;;;;;;;12.25;1.20;;;;;;;;;;5063886;28;20458;-76
2022/12/07 05:08:43;;;;;;;11.18;1.13;;;;;;;;;;5050772;28;20055;-76
2022/12/07 05:11:09;;;;;;;14.65;1.33;;;;;;;;;;5034141;28;20083;-76
2022/12/07 05:13:36;;;;;;;6.72;1.13;;;;;;;;;;5070242;28;20071;-76
2022/12/07 05:16:02;;;;;;;5.93;1.02;;;;;;;;;;5070907;28;20056;-76
2022/12/07 05:18:28;;;;;;;8.65;0.90;;;;;;;;;;5070328;28;20032;-76
2022/12/07 05:20:54;;;;;;;6.20;1.45;;;;;;;;;;5072198;28;20043;-76
2022/12/07 05:23:20;;;;;;;9.10;0.90;;;;;;;;;;5071685;28;20049;-76
2022/12/07 05:25:47;;;;;;;6.30;0.80;;;;;;;;;;5070855;28;20064;-76
2022/12/07 05:28:13;;;;;;;10.18;1.30;;;;;;;;;;5074319;28;20044;-76
2022/12/07 05:30:39;;;;;;;9.55;1.30;;;;;;;;;;5075364;28;20036;-76
2022/12/07 05:33:05;;;;;;;8.93;0.93;;;;;;;;;;5072756;28;20049;-76
2022/12/07 05:35:31;;;;;;;8.50;1.25;;;;;;;;;;5072171;28;20028;-77
2022/12/07 05:37:58;;;;;;;8.85;1.10;;;;;;;;;;5074417;28;20067;-76
2022/12/07 05:40:24;;;;;;;7.03;1.20;;;;;;;;;;5073929;28;20052;-76
2022/12/07 05:42:50;;;;;;;8.93;1.30;;;;;;;;;;5065724;28;20508;-76
2022/12/07 05:45:16;;;;;;;11.45;2.10;;;;;;;;;;5069577;28;20559;-77
2022/12/07 05:47:42;;;;;;;7.40;0.93;;;;;;;;;;5075201;28;20032;-77
2022/12/07 05:50:08;;;;;;;8.00;0.93;;;;;;;;;;5074074;28;20048;-76
2022/12/07 05:52:34;;;;;;;13.50;1.40;;;;;;;;;;5073906;28;20483;-76
2022/12/07 05:55:00;;;;;;;7.60;0.90;;;;;;;;;;5063117;28;20116;-76
2022/12/07 05:57:26;;;;;;;8.27;1.20;;;;;;;;;;5070577;28;20080;-76
2022/12/07 05:59:52;;;;;;;10.43;1.30;;;;;;;;;;5065319;28;20093;-77
2022/12/07 06:02:18;;;;;;;8.57;1.00;;;;;;;;;;5069960;28;20059;-76
2022/12/07 06:04:46;;;;;;;7.35;0.90;;;;;;;;;;5066363;28;20049;-76
2022/12/07 06:07:13;;;;;;;8.00;1.17;;;;;;;;;;5070812;28;20052;-78
2022/12/07 06:09:39;;;;;;;8.13;1.10;;;;;;;;;;5054602;28;20432;-78
2022/12/07 06:14:49;;;;;;;8.30;1.85;;;;;;;;;;5071451;28;20059;-77
2022/12/07 06:17:16;;;;;;;12.30;2.55;;;;;;;;;;5053606;28;20033;-77
2022/12/07 06:19:42;;;;;;;6.20;1.88;;;;;;;;;;5067754;28;20503;-77
2022/12/07 06:22:10;;;;;;;10.02;2.15;;;;;;;;;;5073677;28;20063;-77
2022/12/07 06:24:36;;;;;;;9.18;1.42;;;;;;;;;;5073443;28;20051;-77
2022/12/07 06:27:02;;;;;;;7.50;1.15;;;;;;;;;;5068769;28;20151;-77
2022/12/07 06:29:28;;;;;;;4.55;0.95;;;;;;;;;;5054664;28;20068;-77
2022/12/07 06:31:54;;;;;;;4.40;0.90;;;;;;;;;;5050765;28;20079;-77
2022/12/07 06:34:23;;;;;;;8.40;1.00;;;;;;;;;;5062156;28;20070;-77
2022/12/07 06:36:51;;;;;;;5.43;0.60;;;;;;;;;;5071395;28;20037;-77
2022/12/07 06:39:18;;;;;;;5.13;1.05;;;;;;;;;;5053268;28;20512;-77
2022/12/07 06:41:45;;;;;;;6.03;0.80;;;;;;;;;;5066784;28;20493;-76
2022/12/07 06:44:11;;;;;;;7.10;0.70;;;;;;;;;;5073327;28;20036;-78
2022/12/07 06:46:37;;;;;;;3.13;0.60;;;;;;;;;;5061673;28;20433;-77
2022/12/07 06:49:04;;;;;;;7.38;0.95;;;;;;;;;;5070800;28;20397;-77
2022/12/07 06:51:30;;;;;;;5.57;0.90;;;;;;;;;;5072397;28;20044;-77
2022/12/07 06:53:56;;;;;;;4.63;0.82;;;;;;;;;;5058419;28;20045;-77
2022/12/07 06:56:22;;;;;;;3.72;0.70;;;;;;;;;;5064952;28;20458;-77
2022/12/07 06:58:48;;;;;;;5.50;1.02;;;;;;;;;;5053581;28;20040;-76
2022/12/07 07:01:16;;;;;;;6.53;1.05;;;;;;;;;;5072478;28;20139;-76
2022/12/07 07:03:42;;;;;;;9.10;1.05;;;;;;;;;;5072398;28;20049;-77
2022/12/07 07:06:09;;;;;;;8.32;1.63;;;;;;;;;;5057360;28;20052;-77
2022/12/07 07:08:36;;;;;;;9.52;1.15;;;;;;;;;;5052013;28;20041;-77
2022/12/07 07:11:02;;;;;;;7.35;1.00;;;;;;;;;;5052658;28;20391;-77
2022/12/07 07:13:28;;;;;;;8.93;1.10;;;;;;;;;;5071365;28;20501;-78
2022/12/07 07:15:54;;;;;;;8.77;1.27;;;;;;;;;;5071984;28;20048;-77
2022/12/07 07:18:20;;;;;;;8.93;1.13;;;;;;;;;;5069484;28;20033;-77
2022/12/07 07:20:46;;;;;;;9.48;1.33;;;;;;;;;;5052011;28;20040;-77
2022/12/07 07:23:13;;;;;;;5.05;1.05;;;;;;;;;;5066199;28;20051;-77
2022/12/07 07:25:39;;;;;;;6.32;1.40;;;;;;;;;;5052118;28;20116;-77
2022/12/07 07:28:05;;;;;;;11.57;1.70;;;;;;;;;;5066683;28;20050;-77
2022/12/07 07:30:31;;;;;;;6.45;1.13;;;;;;;;;;5058233;28;20036;-78
2022/12/07 07:32:58;;;;;;;8.63;1.33;;;;;;;;;;5071635;28;20123;-77
2022/12/07 07:35:24;;;;;;;5.82;1.30;;;;;;;;;;5066006;28;20502;-78
2022/12/07 07:37:50;;;;;;;6.82;1.00;;;;;;;;;;5062791;28;20052;-78
2022/12/07 07:40:17;;;;;;;6.70;1.48;;;;;;;;;;5073102;28;20037;-78
2022/12/07 07:42:43;;;;;;;9.35;1.50;;;;;;;;;;5071691;28;20029;-78
2022/12/07 07:45:09;;;;;;;8.43;1.52;;;;;;;;;;5071850;28;20044;-78
2022/12/07 07:47:35;;;;;;;7.97;1.75;;;;;;;;;;5057850;28;20051;-78
2022/12/07 07:50:01;;;;;;;8.52;1.45;;;;;;;;;;5060519;28;20557;-78
2022/12/07 07:52:27;;;;;;;8.90;1.35;;;;;;;;;;5069411;28;20036;-78
2022/12/07 07:54:53;;;;;;;11.23;1.77;;;;;;;;;;5071279;28;20047;-78
2022/12/07 07:57:19;;;;;;;8.40;1.35;;;;;;;;;;5071445;28;20036;-78
2022/12/07 07:59:45;;;;;;;7.90;1.50;;;;;;;;;;5071442;28;20032;-78
2022/12/07 08:02:19;;;;;;;5.35;1.15;;;;;;;;;;5054582;28;20053;-77
2022/12/07 08:04:45;;;;;;;7.38;1.70;;;;;;;;;;5070941;28;20048;-78
2022/12/07 08:07:11;;;;;;;5.47;1.33;;;;;;;;;;5045821;28;20383;-77
2022/12/07 08:09:38;;;;;;;8.20;1.90;;;;;;;;;;5052776;28;20115;-78
2022/12/07 08:12:04;;;;;;;10.68;2.00;;;;;;;;;;5068254;28;20064;-78
2022/12/07 08:14:30;;;;;;;9.98;2.25;;;;;;;;;;5064660;28;20067;-78
2022/12/07 08:16:56;;;;;;;6.50;1.63;;;;;;;;;;5070740;28;20039;-78
2022/12/07 08:19:22;;;;;;;12.10;1.35;;;;;;;;;;5072678;28;20032;-78
2022/12/07 08:21:48;;;;;;;9.73;1.95;;;;;;;;;;5071542;28;20028;-78
2022/12/07 08:24:14;;;;;;;7.30;1.65;;;;;;;;;;5071656;28;20504;-77
2022/12/07 08:26:41;;;;;;;10.88;1.50;;;;;;;;;;5055533;28;20052;-78
2022/12/07 08:29:07;;;;;;;4.75;1.20;;;;;;;;;;5060406;28;20033;-78
2022/12/07 08:31:33;;;;;;;11.02;1.52;;;;;;;;;;5072679;28;20046;-77
2022/12/07 08:33:59;;;;;;;10.00;1.52;;;;;;;;;;5056867;28;20037;-77
2022/12/07 08:36:25;;;;;;;6.20;1.50;;;;;;;;;;5071337;28;20493;-77
2022/12/07 08:38:51;;;;;;;11.30;1.55;;;;;;;;;;5071020;28;20067;-78
2022/12/07 08:41:17;;;;;;;8.93;1.80;;;;;;;;;;5072968;28;20131;-78
2022/12/07 08:43:43;;;;;;;10.65;2.83;;;;;;;;;;5068625;28;20052;-78
2022/12/07 08:46:12;;;;;;;12.50;2.63;;;;;;;;;;5059015;28;20044;-78
2022/12/07 08:48:41;;;;;;;14.45;2.60;;;;;;;;;;5071179;28;20466;-77
2022/12/07 08:51:07;;;;;;;7.57;2.17;;;;;;;;;;5072334;28;20035;-77
2022/12/07 08:53:35;;;;;;;8.73;1.40;;;;;;;;;;5054153;28;20076;-78
2022/12/07 08:56:01;;;;;;;5.88;1.25;;;;;;;;;;5070546;28;20067;-77
2022/12/07 08:58:30;;;;;;;5.85;1.02;;;;;;;;;;5054419;28;20064;-78
2022/12/07 09:00:56;;;;;;;7.10;1.40;;;;;;;;;;5054343;28;20063;-73
2022/12/07 09:03:22;;;;;;;7.82;1.15;;;;;;;;;;5075044;28;20049;-73
2022/12/07 09:05:48;;;;;;;3.55;0.85;;;;;;;;;;5074299;28;20049;-73
2022/12/07 09:08:15;;;;;;;4.88;1.00;;;;;;;;;;5056788;28;20471;-73
2022/12/07 09:10:41;;;;;;;8.00;1.63;;;;;;;;;;5056182;28;20486;-73
2022/12/07 09:13:07;;;;;;;7.35;1.50;;;;;;;;;;5071488;28;20052;-72
2022/12/07 09:15:33;;;;;;;5.32;1.05;;;;;;;;;;5058323;28;20480;-72
2022/12/07 09:17:59;;;;;;;5.75;1.10;;;;;;;;;;5074022;28;20037;-72
2022/12/07 09:20:25;;;;;;;5.20;1.20;;;;;;;;;;5075807;28;20047;-72
2022/12/07 09:22:51;;;;;;;7.63;2.10;;;;;;;;;;5074357;28;20032;-72
2022/12/07 09:25:17;;;;;;;5.57;0.88;;;;;;;;;;5074154;28;20171;-73
2022/12/07 09:27:43;;;;;;;11.23;1.70;;;;;;;;;;5074531;28;20107;-73
2022/12/07 09:30:10;;;;;;;5.47;1.10;;;;;;;;;;5074104;28;20036;-73
2022/12/07 09:32:36;;;;;;;8.27;1.52;;;;;;;;;;5074395;28;20044;-72
2022/12/07 09:35:03;;;;;;;6.03;0.98;;;;;;;;;;5072231;28;20051;-72
2022/12/07 09:37:29;;;;;;;8.20;1.13;;;;;;;;;;5074236;28;20501;-72
2022/12/07 09:39:55;;;;;;;6.45;0.95;;;;;;;;;;5073677;28;20083;-72
2022/12/07 09:42:34;;;;;;;7.53;1.48;;;;;;;;;;5074009;28;20028;-72
2022/12/07 09:45:01;;;;;;;6.45;1.25;;;;;;;;;;5075008;28;20051;-72
2022/12/07 09:47:28;;;;;;;5.97;1.27;;;;;;;;;;5073805;28;20040;-72
2022/12/07 09:49:56;;;;;;;6.22;1.00;;;;;;;;;;5073681;28;20097;-72
2022/12/07 09:52:29;;;;;;;6.00;1.20;;;;;;;;;;5075311;28;20089;-72
2022/12/07 09:54:55;;;;;;;9.48;1.27;;;;;;;;;;5073156;28;20062;-72
2022/12/07 09:57:26;;;;;;;8.00;1.00;;;;;;;;;;5073777;28;20044;-73
2022/12/07 09:59:52;;;;;;;6.97;1.10;;;;;;;;;;5074186;28;20486;-73
2022/12/07 10:02:34;;;;;;;4.78;1.10;;;;;;;;;;5073029;28;20052;-73
2022/12/07 10:05:00;;;;;;;7.28;1.70;;;;;;;;;;5073195;28;20075;-73
2022/12/07 10:07:26;;;;;;;7.32;1.40;;;;;;;;;;5058557;28;20044;-73
2022/12/07 10:09:52;;;;;;;15.27;1.63;;;;;;;;;;5070611;28;20045;-73
2022/12/07 10:12:18;;;;;;;4.70;1.10;;;;;;;;;;5052818;28;20052;-73
2022/12/07 10:14:55;;;;;;;5.07;1.10;;;;;;;;;;5053483;28;20073;-73
2022/12/07 10:17:30;;;;;;;4.55;1.20;;;;;;;;;;5053452;28;20040;-73
2022/12/07 10:20:28;;;;;;;5.47;0.93;;;;;;;;;;5036917;28;20041;-72
2022/12/07 10:22:56;;;;;;;7.13;1.08;;;;;;;;;;5075420;28;20124;-72
2022/12/07 10:25:23;;;;;;;4.13;0.90;;;;;;;;;;5036569;28;20048;-72
2022/12/07 10:28:03;;;;;;;6.68;1.25;;;;;;;;;;5053780;28;20367;-72
2022/12/07 10:30:30;;;;;;;6.75;1.45;;;;;;;;;;5053260;28;20044;-72
2022/12/07 10:32:56;;;;;;;5.07;1.00;;;;;;;;;;5052934;28;20049;-72
2022/12/07 10:35:22;;;;;;;5.30;0.80;;;;;;;;;;5022934;28;20049;-72
2022/12/07 10:37:49;;;;;;;7.25;1.42;;;;;;;;;;5053211;28;20490;-71
2022/12/07 10:40:30;;;;;;;5.97;1.40;;;;;;;;;;5052923;28;20045;-72
2022/12/07 10:43:02;;;;;;;7.13;1.25;;;;;;;;;;5052947;28;20037;-72
2022/12/07 10:45:28;;;;;;;6.30;1.20;;;;;;;;;;5053057;28;20382;-72
2022/12/07 10:48:27;;;;;;;7.07;1.00;;;;;;;;;;5054211;28;20045;-72
2022/12/07 10:51:02;;;;;;;9.48;1.30;;;;;;;;;;5077662;28;20071;-72
2022/12/07 10:53:34;;;;;;;10.03;1.37;;;;;;;;;;5036246;28;20044;-72
2022/12/07 10:56:07;;;;;;;5.80;1.00;;;;;;;;;;5035705;28;20279;-71
2022/12/07 10:58:36;;;;;;;7.60;1.13;;;;;;;;;;5053983;28;20052;-72
2022/12/07 11:01:21;;;;;;;5.38;1.10;;;;;;;;;;5052521;28;20124;-71
2022/12/07 11:04:05;;;;;;;6.45;1.40;;;;;;;;;;5036235;28;20116;-71
2022/12/07 11:06:37;;;;;;;7.00;1.50;;;;;;;;;;5066975;28;20509;-72
2022/12/07 11:09:25;;;;;;;5.88;1.00;;;;;;;;;;5079405;28;20044;-72
2022/12/07 11:12:01;;;;;;;6.35;1.20;;;;;;;;;;5072335;28;20123;-72
2022/12/07 11:14:40;;;;;;;10.63;1.20;;;;;;;;;;5072258;28;20051;-72
2022/12/07 11:17:32;;;;;;;7.30;0.90;;;;;;;;;;5046958;28;20047;-72
2022/12/07 11:20:05;;;;;;;9.77;1.00;;;;;;;;;;5056937;28;20055;-73
2022/12/07 11:22:44;;;;;;;10.10;1.30;;;;;;;;;;5055464;28;20094;-70
2022/12/07 11:25:10;;;;;;;9.82;1.45;;;;;;;;;;5054237;28;20105;-71
2022/12/07 11:27:44;;;;;;;6.80;1.23;;;;;;;;;;5072219;28;20541;-71
2022/12/07 11:30:29;;;;;;;7.32;1.13;;;;;;;;;;5055178;28;20131;-71
2022/12/07 11:32:55;;;;;;;7.20;1.10;;;;;;;;;;5073565;28;20051;-71
2022/12/07 11:35:40;;;;;;;6.80;1.17;;;;;;;;;;5068659;28;20041;-71
2022/12/07 11:38:14;;;;;;;8.32;1.30;;;;;;;;;;5055544;28;20115;-71
2022/12/07 11:40:41;;;;;;;7.07;1.73;;;;;;;;;;5071718;28;20036;-71
2022/12/07 11:43:26;;;;;;;7.72;1.30;;;;;;;;;;5072680;28;20091;-71
2022/12/07 11:45:59;;;;;;;8.63;1.58;;;;;;;;;;5072032;28;20469;-71
2022/12/07 11:48:44;;;;;;;7.63;1.15;;;;;;;;;;5071301;28;20079;-72
2022/12/07 11:51:12;;;;;;;4.88;1.00;;;;;;;;;;5046044;28;20044;-72
2022/12/07 11:53:47;;;;;;;6.32;1.40;;;;;;;;;;5071747;28;20098;-72
2022/12/07 11:56:14;;;;;;;5.93;1.60;;;;;;;;;;5038437;28;20437;-72
2022/12/07 11:59:00;;;;;;;10.77;1.40;;;;;;;;;;5064767;28;20036;-71
2022/12/07 12:01:30;;;;;;;9.32;0.90;;;;;;;;;;5047046;28;20056;-71
2022/12/07 12:03:58;;;;;;;7.78;1.77;;;;;;;;;;5054735;28;20076;-72
2022/12/07 12:06:24;;;;;;;9.05;1.30;;;;;;;;;;5068588;28;20490;-72
2022/12/07 12:09:02;;;;;;;11.55;1.20;;;;;;;;;;5051557;28;20497;-72
2022/12/07 12:11:41;;;;;;;7.20;1.25;;;;;;;;;;5067822;28;20048;-71
2022/12/07 12:14:26;;;;;;;6.47;1.10;;;;;;;;;;5054331;28;20040;-71
2022/12/07 12:17:11;;;;;;;8.32;1.00;;;;;;;;;;5071587;28;20519;-71
2022/12/07 12:19:57;;;;;;;7.07;1.13;;;;;;;;;;5054750;28;20037;-71
2022/12/07 12:22:27;;;;;;;7.57;1.20;;;;;;;;;;5070806;28;20041;-71
2022/12/07 12:24:53;;;;;;;7.60;1.02;;;;;;;;;;5071111;28;20075;-72
2022/12/07 12:27:32;;;;;;;6.88;1.00;;;;;;;;;;5037749;28;20048;-72
2022/12/07 12:30:00;;;;;;;7.97;1.20;;;;;;;;;;5071179;28;20504;-71
2022/12/07 12:32:42;;;;;;;7.72;0.80;;;;;;;;;;5054193;28;20044;-71
2022/12/07 12:35:30;;;;;;;4.68;0.77;;;;;;;;;;5067867;28;20051;-71
2022/12/07 12:38:16;;;;;;;6.05;0.85;;;;;;;;;;5071060;28;20056;-71
2022/12/07 12:40:43;;;;;;;5.13;1.00;;;;;;;;;;5070805;28;20028;-71
2022/12/07 12:43:28;;;;;;;4.72;0.80;;;;;;;;;;5070930;28;20075;-71
2022/12/07 12:46:14;;;;;;;4.40;0.77;;;;;;;;;;5070869;28;20044;-71
2022/12/07 12:48:40;;;;;;;5.85;0.80;;;;;;;;;;5070286;28;20047;-71
2022/12/07 12:51:24;;;;;;;6.82;1.10;;;;;;;;;;5070839;28;20123;-72
2022/12/07 12:53:51;;;;;;;5.88;0.90;;;;;;;;;;5054119;28;20044;-71
2022/12/07 12:56:17;;;;;;;12.65;1.55;;;;;;;;;;5070663;28;20036;-71
2022/12/07 12:58:45;;;;;;;4.85;1.00;;;;;;;;;;5070836;28;20044;-71
2022/12/07 13:01:30;;;;;;;7.53;1.70;;;;;;;;;;5071902;28;20045;-71
2022/12/07 13:03:56;;;;;;;4.85;0.88;;;;;;;;;;5070481;28;20059;-71
2022/12/07 13:06:26;;;;;;;11.13;1.67;;;;;;;;;;5034396;28;20044;-71
2022/12/07 13:08:57;;;;;;;5.45;0.88;;;;;;;;;;5050606;28;20120;-71
2022/12/07 13:11:34;;;;;;;3.63;0.70;;;;;;;;;;5065989;28;20068;-71
2022/12/07 13:14:19;;;;;;;5.47;0.88;;;;;;;;;;5070335;28;20044;-71
2022/12/07 13:16:45;;;;;;;4.57;0.88;;;;;;;;;;5070527;28;20123;-71
2022/12/07 13:19:30;;;;;;;3.92;0.80;;;;;;;;;;5070571;28;20036;-71
2022/12/07 13:21:56;;;;;;;5.75;0.85;;;;;;;;;;5070479;28;20045;-71
2022/12/07 13:24:22;;;;;;;6.35;1.00;;;;;;;;;;5070442;28;20416;-71
2022/12/07 13:26:48;;;;;;;10.38;1.02;;;;;;;;;;5070529;28;20040;-71
2022/12/07 13:29:14;;;;;;;8.77;1.30;;;;;;;;;;5053868;28;20048;-71
2022/12/07 13:31:40;;;;;;;6.72;0.95;;;;;;;;;;5069980;28;20128;-71
2022/12/07 13:34:25;;;;;;;7.15;0.75;;;;;;;;;;5067288;28;20131;-71
2022/12/07 13:36:51;;;;;;;3.15;0.80;;;;;;;;;;5070576;28;20504;-71
2022/12/07 13:39:24;;;;;;;6.82;0.77;;;;;;;;;;5070326;28;20123;-71
2022/12/07 13:41:52;;;;;;;7.40;0.90;;;;;;;;;;5037472;28;20044;-71
2022/12/07 13:44:18;;;;;;;4.20;0.60;;;;;;;;;;5071916;28;20040;-71
2022/12/07 13:46:52;;;;;;;5.03;0.68;;;;;;;;;;5053636;28;20132;-71
2022/12/07 13:49:21;;;;;;;9.27;2.38;;;;;;;;;;5074132;28;20098;-71
2022/12/07 13:51:47;;;;;;;5.18;1.13;;;;;;;;;;5056917;28;20040;-71
2022/12/07 13:54:13;;;;;;;5.85;0.80;;;;;;;;;;5056999;28;20105;-71
2022/12/07 13:56:40;;;;;;;8.52;1.13;;;;;;;;;;5073460;28;20040;-71
2022/12/07 13:59:10;;;;;;;7.60;0.68;;;;;;;;;;5073804;28;20036;-71
2022/12/07 14:01:36;;;;;;;4.47;1.10;;;;;;;;;;5056807;28;20091;-72
2022/12/07 14:04:23;;;;;;;6.00;0.70;;;;;;;;;;5073870;28;20080;-72
2022/12/07 14:06:50;;;;;;;3.75;0.63;;;;;;;;;;5060043;28;20123;-72
2022/12/07 14:09:19;;;;;;;5.97;0.70;;;;;;;;;;5082884;28;20055;-72
2022/12/07 14:11:46;;;;;;;5.05;0.57;;;;;;;;;;5073172;28;20119;-72
2022/12/07 14:14:15;;;;;;;4.53;0.70;;;;;;;;;;5074702;28;20048;-72
2022/12/07 14:16:41;;;;;;;4.68;0.60;;;;;;;;;;5074235;28;20028;-72
2022/12/07 14:19:27;;;;;;;5.50;1.00;;;;;;;;;;5075030;28;20040;-72
2022/12/07 14:22:18;;;;;;;3.95;0.50;;;;;;;;;;5072831;28;20040;-72
2022/12/07 14:24:44;;;;;;;5.97;0.68;;;;;;;;;;5072984;28;20047;-72
2022/12/07 14:27:25;;;;;;;6.03;0.80;;;;;;;;;;5074608;28;20039;-72
2022/12/07 14:29:51;;;;;;;5.85;1.20;;;;;;;;;;5072846;28;20041;-72
2022/12/07 14:32:17;;;;;;;5.47;1.10;;;;;;;;;;5072971;28;20043;-72
2022/12/07 14:34:53;;;;;;;5.72;1.13;;;;;;;;;;5069743;28;20040;-72
2022/12/07 14:37:19;;;;;;;6.43;0.90;;;;;;;;;;5073201;28;20115;-72
2022/12/07 14:39:45;;;;;;;5.30;0.80;;;;;;;;;;5073902;28;20040;-72
2022/12/07 14:42:11;;;;;;;4.72;0.80;;;;;;;;;;5073249;28;20366;-73
2022/12/07 14:44:37;;;;;;;6.75;1.80;;;;;;;;;;5056038;28;20075;-72
2022/12/07 14:47:03;;;;;;;6.00;0.98;;;;;;;;;;5072578;28;20049;-72
2022/12/07 14:49:29;;;;;;;7.20;1.13;;;;;;;;;;5073267;28;20044;-72
2022/12/07 14:51:56;;;;;;;5.65;1.20;;;;;;;;;;5072232;28;20098;-72
2022/12/07 14:54:26;;;;;;;5.30;0.70;;;;;;;;;;5072680;28;20571;-72
2022/12/07 14:56:53;;;;;;;4.15;0.90;;;;;;;;;;5072405;28;20120;-73